FAMM

Mmabatho International Airport

Mafeking, South Africa
METAR FAMM 240200Z AUTO 15003KT //// // ////// 08/05 Q1025
Observed Flight Rules
May-24 @ 02:00 UTC (21 minutes ago)
Wind
150° at 3 knots
Temperatures Readings
Current 8°C / 46°F
Dewpoint 5°C / 41°F
Humidity 82%
Altimeter 30.27" Hg
Pressure 1025 hPa
Elevation 1277
METAR FAMM 240200Z AUTO 15003KT //// // ////// 08/05 Q1025
Observed Flight Rules
May-24 @ 02:00 UTC
(21 minutes ago)
Wind
150° at 3 knots
Temperature Dewpoint
8°C / 46°F 5°C / 41°F
Humidity Altimeter Pressure
82% 30.27" Hg 1025 hPa